Ely Municipal Airport
KELO : now visible

Airfield :











YOU CAN JOIN US ON...

 
LOGIN :

Register | Disclaimer

   EN    FR    IT 

 









Legend :    VFR   Marginal VFR   IFR   Intensive IFR   Very Intensive IFR
Visi :
Ceiling :
>= 8 km
>= 3000ft
5 to 8 km
1000 to 3000 ft
1500m to 5 km
500 to 1000 ft
800 to 1500m
200 to 500 ft
< 800m
< 200 ft
Symbols :   Thunderstorms  Fog  Heavy snow  Heavy precipitations  Wind > 20 kt






- Airport Elevation : 1456 ft


KELO - Ely Municipal

CURRENT METAR :
  • 041615Z AUTO 23008KT 10SM CLR M13/M17 A2982 RMK AO2

EXPIRED METARs :
  • 041555Z AUTO 25011G15KT 10SM CLR M14/M17 A2984 RMK AO2
  • 041535Z AUTO 25008KT 10SM CLR M14/M17 A2984 RMK AO2
  • 041515Z AUTO 24008KT 10SM CLR M15/M17 A2984 RMK AO2
  • 041455Z AUTO 24006KT 10SM CLR M16/M18 A2984 RMK AO2
  • 041435Z AUTO 25005KT 10SM CLR M16/M18 A2985 RMK AO2
  • 041415Z AUTO 23005KT 10SM -SN CLR M17/M19 A2985 RMK AO2
  • 041355Z AUTO 23003KT 10SM -SN CLR M17/M19 A2986 RMK AO2
  • 041335Z AUTO 23003KT 10SM -SN CLR M17/M19 A2987 RMK AO2

TAF N/A
KZMP FIR / North America



MET'MAP, your aeronautical weather chart ! - Copyright ORBIFLY December 2007 - Disclaimer

ORBIFLY MET'MAP TEAM :

Programming & Development : Alexandra Zaïnal
Original concept : Baudouin d'Aumeries
Technical & hardware support : Manuel Goepfert
Assistance : Marc-Olivier Méhu




SOURCES & CREDITS :

   NOAA       Earth
Advisory